Time,TemperatureF,DewpointF,PressureIn,WindDirection,WindDirectionDegrees,WindSpeedMPH,WindSpeedGustMPH,Humidity,HourlyPrecipIn,Conditions,Clouds,dailyrainin,SoftwareType,DateUTC
2013-03-28 00:03:00,39.0,33.0,-100.00,WNW,300,5.0,10.0,79,-99.99,,,-99.99,,2013-03-28 04:03:00,
2013-03-28 00:12:00,39.0,34.0,-100.00,West,270,3.0,15.0,82,-99.99,,,-99.99,,2013-03-28 04:12:00,
2013-03-28 00:23:00,39.0,34.0,-100.00,West,270,3.0,15.0,82,-99.99,,,-99.99,,2013-03-28 04:23:00,
2013-03-28 00:42:00,38.0,35.0,-100.00,North,355,2.0,7.0,89,-99.99,,,-99.99,,2013-03-28 04:42:00,
2013-03-28 00:53:00,38.0,35.0,-100.00,NNE,25,2.0,8.0,90,-99.99,,,-99.99,,2013-03-28 04:53:00,
2013-03-28 01:02:00,37.0,35.0,-100.00,NW,315,3.0,7.0,92,-99.99,,,-99.99,,2013-03-28 05:02:00,
2013-03-28 01:12:00,37.0,36.0,-100.00,NNW,340,2.0,7.0,93,-99.99,,,-99.99,,2013-03-28 05:12:00,
2013-03-28 01:22:00,37.0,35.0,-100.00,West,270,2.0,6.0,93,-99.99,,,-99.99,,2013-03-28 05:22:00,
2013-03-28 01:32:00,37.0,36.0,-100.00,South,185,2.0,6.0,94,-99.99,,,-99.99,,2013-03-28 05:32:00,
2013-03-28 01:42:00,37.0,35.0,-100.00,North,10,2.0,5.0,94,-99.99,,,-99.99,,2013-03-28 05:42:00,
2013-03-28 01:52:00,37.0,36.0,-100.00,NW,305,2.0,7.0,95,-99.99,,,-99.99,,2013-03-28 05:52:00,
2013-03-28 02:02:00,37.0,36.0,-100.00,NW,305,2.0,6.0,95,-99.99,,,-99.99,,2013-03-28 06:02:00,
2013-03-28 02:12:00,37.0,36.0,-100.00,West,275,2.0,7.0,95,-99.99,,,-99.99,,2013-03-28 06:12:00,
2013-03-28 02:22:00,37.0,36.0,-100.00,WSW,245,1.0,7.0,95,-99.99,,,-99.99,,2013-03-28 06:22:00,
2013-03-28 02:33:00,37.0,36.0,-100.00,NW,305,3.0,7.0,95,-99.99,,,-99.99,,2013-03-28 06:33:00,
2013-03-28 02:42:00,37.0,36.0,-100.00,North,350,3.0,7.0,96,-99.99,,,-99.99,,2013-03-28 06:42:00,
2013-03-28 02:52:00,37.0,36.0,-100.00,WNW,295,3.0,7.0,96,-99.99,,,-99.99,,2013-03-28 06:52:00,
2013-03-28 03:02:00,37.0,36.0,-100.00,North,10,3.0,10.0,96,-99.99,,,-99.99,,2013-03-28 07:02:00,
2013-03-28 03:13:00,37.0,36.0,-100.00,West,275,3.0,8.0,96,-99.99,,,-99.99,,2013-03-28 07:13:00,
2013-03-28 03:22:00,36.0,35.0,-100.00,West,280,5.0,9.0,96,-99.99,,,-99.99,,2013-03-28 07:22:00,
2013-03-28 03:32:00,36.0,35.0,-100.00,North,10,2.0,7.0,96,-99.99,,,-99.99,,2013-03-28 07:32:00,
2013-03-28 03:42:00,36.0,35.0,-100.00,NW,305,5.0,9.0,96,-99.99,,,-99.99,,2013-03-28 07:42:00,
2013-03-28 03:52:00,36.0,35.0,-100.00,WSW,245,1.0,7.0,96,-99.99,,,-99.99,,2013-03-28 07:52:00,
2013-03-28 04:03:00,36.0,36.0,-100.00,NE,35,1.0,7.0,97,-99.99,,,-99.99,,2013-03-28 08:03:00,
2013-03-28 04:12:00,36.0,35.0,-100.00,WNW,290,1.0,6.0,96,-99.99,,,-99.99,,2013-03-28 08:12:00,
2013-03-28 04:22:00,36.0,35.0,-100.00,SW,225,2.0,8.0,97,-99.99,,,-99.99,,2013-03-28 08:22:00,
2013-03-28 04:33:00,36.0,35.0,-100.00,NNW,345,3.0,6.0,96,-99.99,,,-99.99,,2013-03-28 08:33:00,
2013-03-28 04:42:00,36.0,35.0,-100.00,West,260,2.0,6.0,96,-99.99,,,-99.99,,2013-03-28 08:42:00,
2013-03-28 04:52:00,36.0,35.0,-100.00,NW,315,2.0,8.0,95,-99.99,,,-99.99,,2013-03-28 08:52:00,
2013-03-28 05:02:00,36.0,35.0,-100.00,NNW,330,3.0,7.0,95,-99.99,,,-99.99,,2013-03-28 09:02:00,
2013-03-28 05:12:00,36.0,35.0,-100.00,NW,310,1.0,6.0,95,-99.99,,,-99.99,,2013-03-28 09:12:00,
2013-03-28 05:22:00,36.0,34.0,-100.00,NW,315,2.0,9.0,95,-99.99,,,-99.99,,2013-03-28 09:22:00,
2013-03-28 05:30:00,36.0,34.0,-100.00,NW,315,1.0,7.0,93,-99.99,,,-99.99,,2013-03-28 09:30:00,
2013-03-28 05:33:00,36.0,34.0,-100.00,NW,305,1.0,6.0,95,-99.99,,,-99.99,,2013-03-28 09:33:00,
2013-03-28 05:42:00,36.0,35.0,-100.00,West,270,2.0,5.0,95,-99.99,,,-99.99,,2013-03-28 09:42:00,
2013-03-28 05:52:00,36.0,35.0,-100.00,West,270,2.0,5.0,95,-99.99,,,-99.99,,2013-03-28 09:52:00,
2013-03-28 06:03:00,36.0,35.0,-100.00,West,270,2.0,5.0,95,-99.99,,,-99.99,,2013-03-28 10:03:00,
2013-03-28 06:12:00,36.0,34.0,-100.00,NW,315,1.0,7.0,93,-99.99,,,-99.99,,2013-03-28 10:12:00,
2013-03-28 06:22:00,36.0,34.0,-100.00,NW,315,1.0,7.0,93,-99.99,,,-99.99,,2013-03-28 10:22:00,
2013-03-28 06:43:00,36.0,34.0,-100.00,NNW,340,2.0,9.0,92,-99.99,,,-99.99,,2013-03-28 10:43:00,
2013-03-28 06:53:00,36.0,34.0,-100.00,NNW,340,2.0,7.0,92,-99.99,,,-99.99,,2013-03-28 10:53:00,
2013-03-28 07:03:00,36.0,34.0,-100.00,North,10,1.0,7.0,92,-99.99,,,-99.99,,2013-03-28 11:03:00,
2013-03-28 07:12:00,36.0,34.0,-100.00,WNW,295,2.0,6.0,92,-99.99,,,-99.99,,2013-03-28 11:12:00,
2013-03-28 07:23:00,36.0,34.0,-100.00,NNE,15,2.0,6.0,92,-99.99,,,-99.99,,2013-03-28 11:23:00,
2013-03-28 07:32:00,36.0,34.0,-100.00,West,270,1.0,7.0,92,-99.99,,,-99.99,,2013-03-28 11:32:00,
2013-03-28 07:43:00,36.0,34.0,-100.00,West,280,1.0,5.0,92,-99.99,,,-99.99,,2013-03-28 11:43:00,
2013-03-28 07:52:00,36.0,34.0,-100.00,WSW,240,2.0,7.0,91,-99.99,,,-99.99,,2013-03-28 11:52:00,
2013-03-28 08:02:00,36.0,34.0,-100.00,WNW,285,2.0,6.0,91,-99.99,,,-99.99,,2013-03-28 12:02:00,
2013-03-28 08:12:00,36.0,34.0,-100.00,East,80,1.0,3.0,91,-99.99,,,-99.99,,2013-03-28 12:12:00,
2013-03-28 08:22:00,37.0,34.0,-100.00,NNE,15,1.0,5.0,90,-99.99,,,-99.99,,2013-03-28 12:22:00,
2013-03-28 08:33:00,37.0,34.0,-100.00,NNW,345,2.0,6.0,87,-99.99,,,-99.99,,2013-03-28 12:33:00,
2013-03-28 08:42:00,38.0,35.0,-100.00,North,350,2.0,7.0,88,-99.99,,,-99.99,,2013-03-28 12:42:00,
2013-03-28 08:52:00,39.0,35.0,-100.00,North,355,2.0,7.0,85,-99.99,,,-99.99,,2013-03-28 12:52:00,
2013-03-28 09:02:00,40.0,35.0,-100.00,NW,325,3.0,9.0,82,-99.99,,,-99.99,,2013-03-28 13:02:00,
2013-03-28 09:12:00,41.0,35.0,-100.00,North,0,5.0,8.0,79,-99.99,,,-99.99,,2013-03-28 13:12:00,
2013-03-28 09:22:00,41.0,35.0,-100.00,North,5,5.0,9.0,78,-99.99,,,-99.99,,2013-03-28 13:22:00,
2013-03-28 09:30:00,43.0,34.0,-100.00,North,0,3.0,7.0,70,-99.99,,,-99.99,,2013-03-28 13:30:00,
2013-03-28 09:32:00,41.0,35.0,-100.00,North,10,2.0,5.0,77,-99.99,,,-99.99,,2013-03-28 13:32:00,
2013-03-28 09:42:00,42.0,35.0,-100.00,NNW,345,2.0,7.0,77,-99.99,,,-99.99,,2013-03-28 13:42:00,
2013-03-28 09:52:00,42.0,35.0,-100.00,NNW,345,2.0,8.0,76,-99.99,,,-99.99,,2013-03-28 13:52:00,
2013-03-28 10:02:00,43.0,35.0,-100.00,North,355,3.0,9.0,73,-99.99,,,-99.99,,2013-03-28 14:02:00,
2013-03-28 10:12:00,43.0,34.0,-100.00,North,0,3.0,7.0,70,-99.99,,,-99.99,,2013-03-28 14:12:00,
2013-03-28 10:23:00,43.0,34.0,-100.00,North,0,3.0,7.0,70,-99.99,,,-99.99,,2013-03-28 14:23:00,
2013-03-28 10:52:00,45.0,33.0,-100.00,North,10,6.0,10.0,63,-99.99,,,-99.99,,2013-03-28 14:52:00,
2013-03-28 11:02:00,46.0,33.0,-100.00,North,0,2.0,7.0,60,-99.99,,,-99.99,,2013-03-28 15:02:00,
2013-03-28 11:12:00,47.0,32.0,-100.00,NE,40,2.0,10.0,55,-99.99,,,-99.99,,2013-03-28 15:12:00,
2013-03-28 11:22:00,48.0,32.0,-100.00,NE,45,6.0,14.0,54,-99.99,,,-99.99,,2013-03-28 15:22:00,
2013-03-28 11:30:00,48.0,29.0,-100.00,NE,50,6.0,14.0,48,-99.99,,,-99.99,,2013-03-28 15:30:00,
2013-03-28 11:33:00,47.0,31.0,-100.00,NE,55,3.0,14.0,53,-99.99,,,-99.99,,2013-03-28 15:33:00,
2013-03-28 11:43:00,47.0,29.0,-100.00,NNW,340,3.0,9.0,50,-99.99,,,-99.99,,2013-03-28 15:43:00,
2013-03-28 11:53:00,47.0,30.0,-100.00,NE,40,3.0,12.0,51,-99.99,,,-99.99,,2013-03-28 15:53:00,
2013-03-28 12:03:00,47.0,30.0,-100.00,NE,40,3.0,12.0,51,-99.99,,,-99.99,,2013-03-28 16:03:00,
2013-03-28 12:13:00,48.0,29.0,-100.00,NE,50,6.0,14.0,48,-99.99,,,-99.99,,2013-03-28 16:13:00,
2013-03-28 12:23:00,48.0,29.0,-100.00,NE,50,6.0,14.0,48,-99.99,,,-99.99,,2013-03-28 16:23:00,
2013-03-28 12:42:00,46.0,28.0,-100.00,North,5,2.0,8.0,49,-99.99,,,-99.99,,2013-03-28 16:42:00,
2013-03-28 12:52:00,46.0,28.0,-100.00,North,5,2.0,8.0,49,-99.99,,,-99.99,,2013-03-28 16:52:00,
2013-03-28 13:02:00,47.0,30.0,-100.00,NE,45,3.0,10.0,52,-99.99,,,-99.99,,2013-03-28 17:02:00,
2013-03-28 13:12:00,46.0,30.0,-100.00,NE,45,6.0,13.0,54,-99.99,,,-99.99,,2013-03-28 17:12:00,
2013-03-28 13:22:00,45.0,31.0,-100.00,NE,55,6.0,10.0,56,-99.99,,,-99.99,,2013-03-28 17:22:00,
2013-03-28 13:32:00,46.0,30.0,-100.00,ESE,105,5.0,8.0,55,-99.99,,,-99.99,,2013-03-28 17:32:00,
2013-03-28 13:42:00,46.0,30.0,-100.00,ESE,105,5.0,7.0,55,-99.99,,,-99.99,,2013-03-28 17:42:00,
2013-03-28 13:52:00,45.0,31.0,-100.00,ESE,120,6.0,10.0,57,-99.99,,,-99.99,,2013-03-28 17:52:00,
2013-03-28 14:02:00,45.0,30.0,-100.00,ESE,110,6.0,9.0,56,-99.99,,,-99.99,,2013-03-28 18:02:00,
2013-03-28 14:12:00,45.0,30.0,-100.00,East,95,5.0,10.0,56,-99.99,,,-99.99,,2013-03-28 18:12:00,
2013-03-28 14:22:00,44.0,30.0,-100.00,East,90,7.0,12.0,58,-99.99,,,-99.99,,2013-03-28 18:22:00,
2013-03-28 14:32:00,45.0,31.0,-100.00,ENE,75,6.0,10.0,58,-99.99,,,-99.99,,2013-03-28 18:32:00,
2013-03-28 14:42:00,43.0,32.0,-100.00,East,100,8.0,13.0,64,-99.99,,,-99.99,,2013-03-28 18:42:00,
2013-03-28 14:52:00,42.0,33.0,-100.00,NE,50,9.0,13.0,69,-99.99,,,-99.99,,2013-03-28 18:52:00,
2013-03-28 15:02:00,43.0,34.0,-100.00,NNE,30,3.0,12.0,70,-99.99,,,-99.99,,2013-03-28 19:02:00,
2013-03-28 15:12:00,43.0,34.0,-100.00,East,80,7.0,13.0,68,-99.99,,,-99.99,,2013-03-28 19:12:00,
2013-03-28 15:23:00,44.0,33.0,-100.00,NE,50,5.0,9.0,66,-99.99,,,-99.99,,2013-03-28 19:23:00,
2013-03-28 15:33:00,45.0,33.0,-100.00,ENE,65,7.0,9.0,63,-99.99,,,-99.99,,2013-03-28 19:33:00,
2013-03-28 15:42:00,45.0,33.0,-100.00,ESE,115,5.0,8.0,63,-99.99,,,-99.99,,2013-03-28 19:42:00,
2013-03-28 15:52:00,45.0,33.0,-100.00,SSW,200,2.0,7.0,62,-99.99,,,-99.99,,2013-03-28 19:52:00,
2013-03-28 16:03:00,46.0,33.0,-100.00,ENE,60,3.0,6.0,60,-99.99,,,-99.99,,2013-03-28 20:03:00,
2013-03-28 16:12:00,47.0,32.0,-100.00,NNE,30,5.0,7.0,56,-99.99,,,-99.99,,2013-03-28 20:12:00,
2013-03-28 16:22:00,45.0,32.0,-100.00,West,265,1.0,6.0,59,-99.99,,,-99.99,,2013-03-28 20:22:00,
2013-03-28 16:33:00,46.0,32.0,-100.00,WNW,285,2.0,5.0,59,-99.99,,,-99.99,,2013-03-28 20:33:00,
2013-03-28 16:42:00,46.0,33.0,-100.00,ENE,70,2.0,7.0,60,-99.99,,,-99.99,,2013-03-28 20:42:00,
2013-03-28 16:52:00,46.0,33.0,-100.00,South,180,2.0,6.0,59,-99.99,,,-99.99,,2013-03-28 20:52:00,
2013-03-28 17:03:00,47.0,33.0,-100.00,South,190,2.0,5.0,57,-99.99,,,-99.99,,2013-03-28 21:03:00,
2013-03-28 17:10:00,47.0,32.0,-100.00,SW,230,3.0,5.0,56,-99.99,,,-99.99,,2013-03-28 21:10:00,
2013-03-28 17:12:00,47.0,33.0,-100.00,South,180,2.0,6.0,56,-99.99,,,-99.99,,2013-03-28 21:12:00,
2013-03-28 17:22:00,47.0,32.0,-100.00,WSW,250,5.0,6.0,57,-99.99,,,-99.99,,2013-03-28 21:22:00,
2013-03-28 17:33:00,46.0,32.0,-100.00,WSW,255,6.0,10.0,58,-99.99,,,-99.99,,2013-03-28 21:33:00,
2013-03-28 17:43:00,46.0,32.0,-100.00,West,270,5.0,8.0,57,-99.99,,,-99.99,,2013-03-28 21:43:00,
2013-03-28 17:53:00,47.0,32.0,-100.00,SW,230,3.0,5.0,56,-99.99,,,-99.99,,2013-03-28 21:53:00,
2013-03-28 18:03:00,47.0,32.0,-100.00,SW,230,3.0,5.0,56,-99.99,,,-99.99,,2013-03-28 22:03:00,
2013-03-28 19:12:00,46.0,32.0,-100.00,SW,235,2.0,6.0,59,-99.99,,,-99.99,,2013-03-28 23:12:00,
2013-03-28 19:22:00,45.0,32.0,-100.00,SW,235,2.0,5.0,60,-99.99,,,-99.99,,2013-03-28 23:22:00,
2013-03-28 19:32:00,45.0,33.0,-100.00,West,265,1.0,3.0,62,-99.99,,,-99.99,,2013-03-28 23:32:00,
2013-03-28 19:42:00,45.0,33.0,-100.00,SW,235,1.0,2.0,62,-99.99,,,-99.99,,2013-03-28 23:42:00,
2013-03-28 19:52:00,44.0,33.0,-100.00,SW,235,2.0,2.0,64,-99.99,,,-99.99,,2013-03-28 23:52:00,
2013-03-28 20:03:00,44.0,33.0,-100.00,SW,235,1.0,3.0,66,-99.99,,,-99.99,,2013-03-29 00:03:00,
2013-03-28 20:12:00,43.0,33.0,-100.00,West,265,1.0,2.0,67,-99.99,,,-99.99,,2013-03-29 00:12:00,
2013-03-28 20:22:00,43.0,33.0,-100.00,NNW,340,0.0,1.0,69,-99.99,,,-99.99,,2013-03-29 00:22:00,
2013-03-28 20:32:00,43.0,33.0,-100.00,NNW,340,0.0,1.0,69,-99.99,,,-99.99,,2013-03-29 00:32:00,
2013-03-28 20:42:00,42.0,31.0,-100.00,West,280,0.0,1.0,67,-99.99,,,-99.99,,2013-03-29 00:42:00,
2013-03-28 20:52:00,41.0,32.0,-100.00,WSW,255,0.0,1.0,68,-99.99,,,-99.99,,2013-03-29 00:52:00,
2013-03-28 21:02:00,41.0,32.0,-100.00,SW,235,1.0,1.0,69,-99.99,,,-99.99,,2013-03-29 01:02:00,
2013-03-28 21:12:00,40.0,32.0,-100.00,SW,220,1.0,2.0,71,-99.99,,,-99.99,,2013-03-29 01:12:00,
2013-03-28 21:22:00,40.0,32.0,-100.00,WSW,255,1.0,1.0,72,-99.99,,,-99.99,,2013-03-29 01:22:00,
2013-03-28 21:33:00,40.0,31.0,-100.00,SW,235,1.0,2.0,71,-99.99,,,-99.99,,2013-03-29 01:33:00,
2013-03-28 21:42:00,39.0,32.0,-100.00,SW,235,1.0,1.0,74,-99.99,,,-99.99,,2013-03-29 01:42:00,
2013-03-28 21:52:00,39.0,31.0,-100.00,South,190,0.0,2.0,75,-99.99,,,-99.99,,2013-03-29 01:52:00,
2013-03-28 22:03:00,39.0,31.0,-100.00,WSW,250,1.0,2.0,73,-99.99,,,-99.99,,2013-03-29 02:03:00,
2013-03-28 22:12:00,39.0,31.0,-100.00,SW,225,1.0,1.0,72,-99.99,,,-99.99,,2013-03-29 02:12:00,
2013-03-28 22:22:00,39.0,31.0,-100.00,SW,215,1.0,2.0,73,-99.99,,,-99.99,,2013-03-29 02:22:00,
2013-03-28 22:32:00,39.0,31.0,-100.00,WSW,255,0.0,2.0,73,-99.99,,,-99.99,,2013-03-29 02:32:00,
2013-03-28 22:42:00,39.0,31.0,-100.00,ESE,105,0.0,2.0,73,-99.99,,,-99.99,,2013-03-29 02:42:00,
2013-03-28 22:52:00,39.0,31.0,-100.00,NW,305,0.0,2.0,73,-99.99,,,-99.99,,2013-03-29 02:52:00,
2013-03-28 23:02:00,39.0,31.0,-100.00,West,260,0.0,2.0,71,-99.99,,,-99.99,,2013-03-29 03:02:00,
2013-03-28 23:10:00,42.0,31.0,-100.00,West,260,1.0,6.0,66,-99.99,,,-99.99,,2013-03-29 03:10:00,
2013-03-28 23:12:00,40.0,31.0,-100.00,WSW,240,1.0,3.0,71,-99.99,,,-99.99,,2013-03-29 03:12:00,
2013-03-28 23:22:00,40.0,31.0,-100.00,SSW,195,1.0,5.0,69,-99.99,,,-99.99,,2013-03-29 03:22:00,
2013-03-28 23:32:00,41.0,31.0,-100.00,WNW,285,2.0,5.0,67,-99.99,,,-99.99,,2013-03-29 03:32:00,
2013-03-28 23:43:00,42.0,31.0,-100.00,WSW,245,1.0,6.0,66,-99.99,,,-99.99,,2013-03-29 03:43:00,
2013-03-28 23:53:00,42.0,31.0,-100.00,West,260,1.0,6.0,66,-99.99,,,-99.99,,2013-03-29 03:53:00,